Terminal Aerodrome Forecast
Issued by NWS Cleveland, OH

Home | Current Version | Previous Version | Graphics & Text | Print | Product List | Glossary On
Versions: 1 2 3 4 5 6 7 8 9 10 11 12 13 14 15 16 17 18 19 20 21 22 23 24 25 26
940
FTUS41 KCLE 132331
TAFCLE
TAF
KCLE 132331Z 1400/1506 05005KT P6SM SKC
     FM141400 18004KT P6SM SCT250
     FM141800 18007KT P6SM SCT060
     FM150000 18008KT P6SM SCT100
     FM150400 18012KT P6SM SCT100=

USA.gov is the U.S. government's official web portal to all federal, state and local government web resources and services.